Time;durP1;ratioP1;P1;durP2;ratioP2;P2;SDS_P1;SDS_P2;PMS_P1;PMS_P2;Temp;Humidity;BMP_temperature;BMP_pressure;BME280_temperature;BME280_humidity;BME280_pressure;Samples;Min_cycle;Max_cycle;Signal;HPM_P1;HPM_P2
2022/01/28 00:01:34;;;;;;;12.50;4.72;;;22.30;59.40;;;;;;5013186;28;20033;-72
2022/01/28 00:04:11;;;;;;;10.90;4.90;;;22.30;59.40;;;;;;5015060;28;20507;-73
2022/01/28 00:06:37;;;;;;;15.73;4.75;;;22.30;59.30;;;;;;5014592;28;20025;-71
2022/01/28 00:09:03;;;;;;;10.07;4.40;;;22.30;59.30;;;;;;5008643;28;20030;-72
2022/01/28 00:11:29;;;;;;;19.23;5.07;;;22.30;59.30;;;;;;4989636;28;20116;-72
2022/01/28 00:14:07;;;;;;;11.30;4.25;;;22.30;59.20;;;;;;4998988;28;20037;-71
2022/01/28 00:38:30;;;;;;;13.18;4.60;;;22.30;59.40;;;;;;5014685;28;20037;-70
2022/01/28 00:40:56;;;;;;;11.52;4.03;;;22.30;59.30;;;;;;5032480;28;20120;-70
2022/01/28 00:43:22;;;;;;;11.27;3.90;;;22.30;59.20;;;;;;5032622;28;20121;-71
2022/01/28 00:45:47;;;;;;;10.25;4.07;;;22.30;59.40;;;;;;5018016;28;20448;-70
2022/01/28 00:48:14;;;;;;;11.90;4.10;;;22.30;59.30;;;;;;5016688;28;20025;-70
2022/01/28 00:50:46;;;;;;;11.48;3.72;;;22.30;59.30;;;;;;4993022;28;20033;-70
2022/01/28 00:53:12;;;;;;;11.95;4.07;;;22.30;59.30;;;;;;5013905;28;20041;-70
2022/01/28 00:55:39;;;;;;;13.00;4.18;;;22.30;59.30;;;;;;5015051;28;20059;-69
2022/01/28 00:58:04;;;;;;;13.02;4.00;;;22.30;59.20;;;;;;5014724;28;20497;-70
2022/01/28 01:00:30;;;;;;;12.43;4.20;;;22.30;59.20;;;;;;5032797;28;20039;-70
2022/01/28 01:02:56;;;;;;;8.20;3.60;;;22.30;59.00;;;;;;5005359;28;20036;-73
2022/01/28 01:05:23;;;;;;;11.98;3.60;;;22.20;58.90;;;;;;4980470;28;20033;-72
2022/01/28 01:07:52;;;;;;;11.80;3.53;;;22.20;58.60;;;;;;5032237;28;20474;-72
2022/01/28 01:10:23;;;;;;;15.20;3.97;;;22.10;57.70;;;;;;5032852;28;20040;-73
2022/01/28 01:12:52;;;;;;;15.98;4.32;;;22.10;57.50;;;;;;5015000;28;20030;-73
2022/01/28 01:15:29;;;;;;;16.20;4.68;;;22.10;57.30;;;;;;5016534;28;20061;-70
2022/01/28 01:18:10;;;;;;;22.90;4.05;;;22.10;57.20;;;;;;5033645;28;20560;-71
2022/01/28 01:23:09;;;;;;;13.95;3.60;;;22.10;57.40;;;;;;5032975;28;20490;-71
2022/01/28 01:25:44;;;;;;;16.30;3.88;;;22.10;57.80;;;;;;4999606;28;20489;-71
2022/01/28 01:28:12;;;;;;;12.45;3.97;;;22.10;57.80;;;;;;5015683;28;20478;-71
2022/01/28 01:30:41;;;;;;;13.70;4.00;;;22.10;57.90;;;;;;5032578;28;20057;-72
2022/01/28 01:33:08;;;;;;;15.93;4.18;;;22.10;58.00;;;;;;5033384;28;20029;-72
2022/01/28 01:35:34;;;;;;;10.02;3.78;;;22.10;58.10;;;;;;5033135;28;20035;-72
2022/01/28 01:38:00;;;;;;;18.42;4.22;;;22.00;58.40;;;;;;5033069;28;20025;-72
2022/01/28 01:40:32;;;;;;;10.63;3.67;;;22.10;58.30;;;;;;5032944;28;20128;-72
2022/01/28 01:43:13;;;;;;;13.27;4.07;;;22.00;58.20;;;;;;5033077;28;20079;-72
2022/01/28 01:45:54;;;;;;;10.23;3.83;;;22.00;58.10;;;;;;5033262;28;20029;-72
2022/01/28 01:53:51;;;;;;;13.35;3.85;;;22.00;58.40;;;;;;5039720;23;20133;-73
2022/01/28 01:56:19;;;;;;;10.70;3.72;;;22.00;58.30;;;;;;5018454;28;20062;-72
2022/01/28 01:58:46;;;;;;;11.30;3.88;;;22.00;58.20;;;;;;5052523;28;20382;-73
2022/01/28 02:01:12;;;;;;;9.27;3.55;;;22.00;58.20;;;;;;5034803;28;20017;-73
2022/01/28 02:03:38;;;;;;;12.40;4.22;;;22.00;58.10;;;;;;5034957;28;20441;-73
2022/01/28 02:06:04;;;;;;;12.88;4.13;;;22.00;58.30;;;;;;5034854;28;20037;-73
2022/01/28 02:08:34;;;;;;;12.52;3.85;;;22.00;58.20;;;;;;5015264;28;20121;-73
2022/01/28 02:11:00;;;;;;;12.70;4.07;;;22.00;58.30;;;;;;5032469;28;20061;-72
2022/01/28 02:13:28;;;;;;;11.15;3.70;;;22.00;58.10;;;;;;5032780;28;20098;-73
2022/01/28 02:15:56;;;;;;;13.60;3.90;;;22.00;58.10;;;;;;5032678;28;20025;-73
2022/01/28 02:18:23;;;;;;;13.15;3.90;;;22.00;58.50;;;;;;4999049;28;20128;-73
2022/01/28 02:20:51;;;;;;;11.73;4.18;;;22.00;58.10;;;;;;5031871;28;20029;-72
2022/01/28 02:23:20;;;;;;;13.63;4.03;;;22.00;58.20;;;;;;5032606;28;20474;-72
2022/01/28 02:25:46;;;;;;;9.95;3.70;;;22.00;58.30;;;;;;5014797;28;20025;-73
2022/01/28 02:28:15;;;;;;;13.68;4.38;;;22.00;58.30;;;;;;5032706;28;20026;-73
2022/01/28 02:30:41;;;;;;;11.63;4.07;;;22.00;58.20;;;;;;5032172;28;20107;-73
2022/01/28 02:33:16;;;;;;;16.73;3.60;;;21.90;57.90;;;;;;5032256;28;20063;-73
2022/01/28 02:35:44;;;;;;;11.57;4.05;;;22.00;58.10;;;;;;5026249;28;20029;-73
2022/01/28 02:38:11;;;;;;;9.20;3.60;;;21.90;58.10;;;;;;5032606;28;20030;-73
2022/01/28 02:40:39;;;;;;;11.35;3.30;;;21.90;57.90;;;;;;5014314;28;20063;-73
2022/01/28 02:43:25;;;;;;;9.63;3.47;;;21.90;57.90;;;;;;5031363;28;20026;-73
2022/01/28 02:45:53;;;;;;;8.63;3.42;;;21.90;58.10;;;;;;5032253;28;20029;-73
2022/01/28 02:48:20;;;;;;;10.52;4.07;;;21.90;57.80;;;;;;5032321;28;20029;-73
2022/01/28 02:51:02;;;;;;;11.27;4.05;;;21.90;57.90;;;;;;5031431;28;20086;-73
2022/01/28 02:53:39;;;;;;;9.20;3.45;;;21.90;58.00;;;;;;5031912;28;20053;-72
2022/01/28 02:56:13;;;;;;;10.57;3.92;;;21.90;57.90;;;;;;5032084;28;20033;-73
2022/01/28 02:58:39;;;;;;;12.55;4.10;;;21.90;57.80;;;;;;5032033;28;20022;-73
2022/01/28 03:01:05;;;;;;;11.02;3.95;;;21.90;57.90;;;;;;5014069;28;20025;-73
2022/01/28 03:03:32;;;;;;;12.68;3.42;;;21.90;57.90;;;;;;5031846;28;20026;-73
2022/01/28 03:05:58;;;;;;;9.68;3.60;;;21.90;57.80;;;;;;5014525;28;20029;-73
2022/01/28 03:08:27;;;;;;;10.70;3.63;;;21.90;57.90;;;;;;5031699;28;20393;-72
2022/01/28 03:16:15;;;;;;;12.23;3.90;;;21.90;57.90;;;;;;5032031;28;20022;-73
2022/01/28 03:18:52;;;;;;;8.15;3.45;;;21.90;57.80;;;;;;5031663;28;20104;-73
2022/01/28 03:22:04;;;;;;;10.77;3.63;;;21.90;58.00;;;;;;5014110;28;20386;-72
2022/01/28 03:24:09;;;;;;;8.65;3.30;;;21.90;57.90;;;;;;5020698;28;20041;-72
2022/01/28 03:26:36;;;;;;;9.60;3.83;;;21.90;58.00;;;;;;5031735;28;20037;-73
2022/01/28 03:29:02;;;;;;;11.13;4.20;;;21.90;57.80;;;;;;5031823;28;20087;-73
2022/01/28 03:31:28;;;;;;;10.40;3.50;;;21.90;58.00;;;;;;5031464;28;20033;-73
2022/01/28 03:33:53;;;;;;;12.68;3.97;;;21.90;57.90;;;;;;5031752;28;20036;-73
2022/01/28 03:36:19;;;;;;;15.15;3.80;;;21.80;57.90;;;;;;5014296;28;20521;-73
2022/01/28 03:38:47;;;;;;;11.68;3.78;;;21.80;58.10;;;;;;5014002;28;20025;-73
2022/01/28 03:41:17;;;;;;;11.52;3.53;;;21.80;58.00;;;;;;5031142;28;20053;-73
2022/01/28 03:43:45;;;;;;;9.45;3.72;;;21.80;58.00;;;;;;5032176;28;20064;-73
2022/01/28 03:46:11;;;;;;;14.65;3.42;;;21.80;58.10;;;;;;5031621;28;20025;-73
2022/01/28 03:48:36;;;;;;;11.30;4.20;;;21.80;57.90;;;;;;5031662;28;20029;-73
2022/01/28 03:51:06;;;;;;;8.25;3.35;;;21.80;58.00;;;;;;5031401;28;20029;-73
2022/01/28 03:53:33;;;;;;;10.63;3.58;;;21.80;58.00;;;;;;5013887;28;20064;-73
2022/01/28 03:56:04;;;;;;;10.00;3.45;;;21.80;58.10;;;;;;5034840;28;20057;-73
2022/01/28 03:58:32;;;;;;;13.90;4.10;;;21.80;57.90;;;;;;5017173;28;20494;-73
2022/01/28 04:00:58;;;;;;;11.35;3.38;;;21.80;58.00;;;;;;5017207;28;20038;-73
2022/01/28 04:11:31;;;;;;;9.63;3.42;;;21.70;57.90;;;;;;5034942;28;20058;-73
2022/01/28 04:14:07;;;;;;;9.55;3.40;;;21.70;58.00;;;;;;5034830;28;20112;-73
2022/01/28 04:17:19;;;;;;;10.13;3.53;;;21.70;57.90;;;;;;5035238;28;20026;-73
2022/01/28 04:19:19;;;;;;;8.80;3.22;;;21.70;58.00;;;;;;5034524;28;20033;-73
2022/01/28 04:21:46;;;;;;;11.75;3.72;;;21.70;58.00;;;;;;5017299;28;20025;-73
2022/01/28 04:24:12;;;;;;;9.18;3.45;;;21.80;58.10;;;;;;5031325;28;20029;-73
2022/01/28 04:26:38;;;;;;;11.70;3.70;;;21.70;57.80;;;;;;5034578;28;20021;-73
2022/01/28 04:29:04;;;;;;;9.15;2.88;;;21.70;58.00;;;;;;5034503;28;20036;-73
2022/01/28 04:31:30;;;;;;;6.88;2.97;;;21.80;57.90;;;;;;5034302;28;20509;-73
2022/01/28 04:33:58;;;;;;;8.88;3.38;;;21.70;57.80;;;;;;5034497;28;20039;-73
2022/01/28 04:36:27;;;;;;;11.60;3.47;;;21.70;57.70;;;;;;5016750;28;20029;-73
2022/01/28 04:39:01;;;;;;;10.17;3.53;;;21.70;57.80;;;;;;5034475;28;20124;-73
2022/01/28 04:41:39;;;;;;;9.57;3.28;;;21.70;57.80;;;;;;5034130;28;20100;-73
2022/01/28 04:44:13;;;;;;;8.55;3.35;;;21.70;57.80;;;;;;5034568;28;20021;-73
2022/01/28 04:46:47;;;;;;;7.68;3.10;;;21.70;57.90;;;;;;5016036;28;20049;-73
2022/01/28 04:49:20;;;;;;;8.75;3.00;;;21.70;57.80;;;;;;5034182;28;20490;-74
2022/01/28 04:54:39;;;;;;;11.32;3.72;;;21.70;57.80;;;;;;5034039;28;20446;-74
2022/01/28 05:02:15;;;;;;;8.95;3.17;;;21.70;57.60;;;;;;5033872;28;20029;-73
2022/01/28 05:05:00;;;;;;;11.27;3.30;;;21.70;57.70;;;;;;5034150;28;20510;-74
2022/01/28 05:15:32;;;;;;;10.57;3.22;;;21.70;57.90;;;;;;5033941;28;20051;-75
2022/01/28 05:28:46;;;;;;;8.75;3.42;;;21.70;57.80;;;;;;5033834;28;20132;-74
2022/01/28 05:31:11;;;;;;;9.23;3.10;;;21.70;57.90;;;;;;5033199;28;20049;-74
2022/01/28 05:33:37;;;;;;;9.75;3.47;;;21.70;58.00;;;;;;5016028;28;20115;-73
2022/01/28 05:36:03;;;;;;;10.07;3.33;;;21.70;57.80;;;;;;5033049;28;20030;-74
2022/01/28 05:38:29;;;;;;;10.25;3.17;;;21.70;57.70;;;;;;5033178;28;20025;-73
2022/01/28 05:40:54;;;;;;;9.57;3.30;;;21.70;58.00;;;;;;5033016;28;20104;-73
2022/01/28 05:43:20;;;;;;;8.27;3.10;;;21.70;57.70;;;;;;5033394;28;20454;-74
2022/01/28 05:45:46;;;;;;;8.38;3.15;;;21.70;57.60;;;;;;5033301;28;20390;-73
2022/01/28 05:48:12;;;;;;;10.18;3.45;;;21.70;57.70;;;;;;5033199;28;20021;-73
2022/01/28 05:50:37;;;;;;;10.05;3.10;;;21.70;57.90;;;;;;5015286;28;20568;-72
2022/01/28 05:53:03;;;;;;;10.35;3.45;;;21.70;57.90;;;;;;4998382;28;20068;-73
2022/01/28 05:55:29;;;;;;;9.10;3.40;;;21.70;57.70;;;;;;5015847;28;20029;-73
2022/01/28 05:57:55;;;;;;;11.85;3.15;;;21.70;57.70;;;;;;5032985;28;20030;-73
2022/01/28 06:00:21;;;;;;;9.23;3.25;;;21.70;57.80;;;;;;5032736;28;20029;-73
2022/01/28 06:02:47;;;;;;;8.63;3.25;;;21.70;57.70;;;;;;5032643;28;20437;-73
2022/01/28 06:05:13;;;;;;;9.38;3.22;;;21.70;57.80;;;;;;5015461;28;20053;-73
2022/01/28 06:07:41;;;;;;;11.20;3.45;;;21.70;58.00;;;;;;5015542;28;20025;-73
2022/01/28 06:10:12;;;;;;;9.35;3.53;;;21.70;57.80;;;;;;5032593;28;20040;-73
2022/01/28 06:12:42;;;;;;;8.15;3.20;;;21.60;57.70;;;;;;5015254;28;20445;-74
2022/01/28 06:15:09;;;;;;;8.57;3.00;;;21.70;57.80;;;;;;5033176;28;20041;-73
2022/01/28 06:17:35;;;;;;;8.35;3.10;;;21.70;57.80;;;;;;5032174;28;20052;-73
2022/01/28 06:20:06;;;;;;;9.68;3.40;;;21.70;57.90;;;;;;5032194;28;20571;-73
2022/01/28 06:22:32;;;;;;;8.32;3.08;;;21.60;57.70;;;;;;5015040;28;20116;-73
2022/01/28 06:24:58;;;;;;;7.97;3.15;;;21.60;57.80;;;;;;5032559;28;20026;-73
2022/01/28 06:27:23;;;;;;;8.25;2.97;;;21.70;57.80;;;;;;5032595;28;20024;-73
2022/01/28 06:29:50;;;;;;;8.88;3.03;;;21.60;57.90;;;;;;5032205;28;20033;-72
2022/01/28 06:32:16;;;;;;;8.70;3.13;;;21.60;57.70;;;;;;4998786;28;20072;-73
2022/01/28 06:34:43;;;;;;;10.13;3.00;;;21.60;57.70;;;;;;5032082;28;20048;-73
2022/01/28 06:37:09;;;;;;;7.50;3.05;;;21.60;57.80;;;;;;5014936;28;20029;-72
2022/01/28 06:39:35;;;;;;;9.75;3.38;;;21.60;57.80;;;;;;5031937;28;20025;-73
2022/01/28 06:42:00;;;;;;;9.77;3.15;;;21.70;57.90;;;;;;5032116;28;20040;-73
2022/01/28 06:44:26;;;;;;;9.20;3.13;;;21.60;57.70;;;;;;5014736;28;20086;-72
2022/01/28 06:46:52;;;;;;;10.60;3.38;;;21.60;57.70;;;;;;5032230;28;20022;-73
2022/01/28 06:49:18;;;;;;;11.93;3.50;;;21.60;57.70;;;;;;5013734;28;20021;-73
2022/01/28 06:51:44;;;;;;;10.23;2.80;;;21.60;57.70;;;;;;5014317;28;20064;-73
2022/01/28 06:54:10;;;;;;;9.10;3.35;;;21.70;57.80;;;;;;5031983;28;20048;-73
2022/01/28 06:56:36;;;;;;;7.85;3.53;;;21.70;57.90;;;;;;5032007;28;20061;-72
2022/01/28 06:59:03;;;;;;;9.00;3.53;;;21.60;57.80;;;;;;5031918;28;20053;-73
2022/01/28 07:01:29;;;;;;;9.60;3.00;;;21.70;57.70;;;;;;5031749;28;20047;-73
2022/01/28 07:03:54;;;;;;;8.30;3.38;;;21.60;57.80;;;;;;5014352;28;20155;-73
2022/01/28 07:06:22;;;;;;;8.52;3.38;;;21.60;57.50;;;;;;5014165;28;20025;-73
2022/01/28 07:08:48;;;;;;;9.13;3.40;;;21.60;57.80;;;;;;5031896;28;20049;-72
2022/01/28 07:11:14;;;;;;;12.30;3.47;;;21.60;57.80;;;;;;5013807;28;20077;-73
2022/01/28 07:13:40;;;;;;;9.40;3.25;;;21.60;57.90;;;;;;5031722;28;20032;-73
2022/01/28 07:16:05;;;;;;;10.60;3.15;;;21.60;57.90;;;;;;5032060;28;20022;-73
2022/01/28 07:18:31;;;;;;;7.65;3.03;;;21.60;57.70;;;;;;5031916;28;20708;-73
2022/01/28 07:20:57;;;;;;;13.82;3.50;;;21.60;58.00;;;;;;5013706;28;20551;-74
2022/01/28 07:23:22;;;;;;;16.02;4.10;;;21.60;58.00;;;;;;5013872;28;20017;-74
2022/01/28 07:25:48;;;;;;;12.80;3.70;;;21.60;57.70;;;;;;5014083;28;20025;-73
2022/01/28 07:28:14;;;;;;;14.18;3.75;;;21.60;57.60;;;;;;5014114;28;20026;-74
2022/01/28 07:30:40;;;;;;;18.25;3.90;;;21.70;57.00;;;;;;5017180;28;20128;-73
2022/01/28 07:33:08;;;;;;;13.38;4.03;;;21.70;57.90;;;;;;5018073;28;20036;-73
2022/01/28 07:35:34;;;;;;;10.35;3.75;;;21.70;57.20;;;;;;4993924;28;20080;-73
2022/01/28 07:38:00;;;;;;;16.02;3.97;;;21.70;57.20;;;;;;5001618;28;20033;-73
2022/01/28 07:40:26;;;;;;;13.00;3.63;;;21.70;57.60;;;;;;5016723;28;20033;-74
2022/01/28 07:42:52;;;;;;;12.00;3.90;;;21.70;58.20;;;;;;5034846;28;20070;-71
2022/01/28 07:45:18;;;;;;;13.85;4.13;;;21.80;58.50;;;;;;5034608;28;20027;-73
2022/01/28 07:47:44;;;;;;;15.95;3.97;;;21.80;58.80;;;;;;5035311;28;20029;-72
2022/01/28 07:50:11;;;;;;;12.95;4.03;;;21.80;58.70;;;;;;5017624;28;20064;-72
2022/01/28 07:52:38;;;;;;;20.55;4.43;;;21.80;59.10;;;;;;5034996;28;20026;-73
2022/01/28 07:55:05;;;;;;;16.73;3.95;;;21.90;58.60;;;;;;5046623;22;20138;-72
2022/01/28 07:57:31;;;;;;;14.40;3.60;;;21.90;58.60;;;;;;5034214;28;20021;-71
2022/01/28 07:59:57;;;;;;;16.27;4.28;;;22.00;58.90;;;;;;5032239;28;20034;-71
2022/01/28 08:02:23;;;;;;;20.02;4.90;;;22.00;58.90;;;;;;5034849;28;20119;-71
2022/01/28 08:04:48;;;;;;;19.88;4.00;;;22.00;58.30;;;;;;5032329;28;20037;-72
2022/01/28 08:07:14;;;;;;;19.35;4.88;;;22.00;58.50;;;;;;5033632;28;20030;-70
2022/01/28 08:09:40;;;;;;;16.77;4.25;;;22.00;58.60;;;;;;5033843;28;20079;-70
2022/01/28 08:12:06;;;;;;;14.23;3.53;;;22.10;58.30;;;;;;5033901;28;20033;-69
2022/01/28 08:14:32;;;;;;;12.27;4.45;;;22.10;58.40;;;;;;5033521;28;20525;-69
2022/01/28 08:16:58;;;;;;;16.23;3.75;;;22.10;58.20;;;;;;5034885;28;20083;-69
2022/01/28 08:19:24;;;;;;;20.45;4.95;;;22.10;58.40;;;;;;5016847;28;20114;-68
2022/01/28 08:21:50;;;;;;;18.33;4.30;;;22.10;58.50;;;;;;5034769;28;20084;-70
2022/01/28 08:24:16;;;;;;;14.85;3.85;;;22.10;58.20;;;;;;5033493;28;20030;-69
2022/01/28 08:26:52;;;;;;;17.70;3.92;;;22.20;59.00;;;;;;5034400;28;20018;-69
2022/01/28 08:29:21;;;;;;;13.25;3.65;;;22.20;58.30;;;;;;5027549;28;20050;-69
2022/01/28 08:31:47;;;;;;;12.77;3.78;;;22.20;58.30;;;;;;5030628;28;20033;-69
2022/01/28 08:34:13;;;;;;;13.80;4.32;;;22.20;58.30;;;;;;5033207;28;20022;-70
2022/01/28 08:36:39;;;;;;;16.08;4.78;;;22.20;58.60;;;;;;5031649;28;20036;-70
2022/01/28 08:39:06;;;;;;;34.97;6.50;;;22.20;58.50;;;;;;5032006;28;20026;-70
2022/01/28 08:41:33;;;;;;;21.33;4.72;;;22.20;61.20;;;;;;5030408;28;20025;-69
2022/01/28 08:43:58;;;;;;;16.92;4.32;;;22.20;60.60;;;;;;5032143;28;20025;-69
2022/01/28 08:46:24;;;;;;;13.98;4.18;;;22.20;58.60;;;;;;5034347;28;20041;-69
2022/01/28 08:48:50;;;;;;;19.75;5.78;;;22.20;58.50;;;;;;5034276;28;20021;-70
2022/01/28 08:51:16;;;;;;;19.33;5.38;;;22.20;58.60;;;;;;5033906;28;20523;-70
2022/01/28 08:53:42;;;;;;;14.73;4.03;;;22.20;59.20;;;;;;5032984;28;20113;-70
2022/01/28 08:56:08;;;;;;;21.95;4.65;;;22.30;59.60;;;;;;5032911;28;20036;-70
2022/01/28 08:58:35;;;;;;;18.33;5.35;;;22.30;60.60;;;;;;5032434;28;20553;-70
2022/01/28 09:01:01;;;;;;;20.90;4.95;;;22.40;60.80;;;;;;5033768;28;20104;-75
2022/01/28 09:03:26;;;;;;;21.45;5.90;;;22.40;59.00;;;;;;5032769;28;20053;-70
2022/01/28 09:05:52;;;;;;;21.05;4.88;;;22.40;59.60;;;;;;5032729;28;20026;-69
2022/01/28 09:08:18;;;;;;;29.48;6.47;;;22.40;60.70;;;;;;5033974;28;20029;-70
2022/01/28 09:10:56;;;;;;;29.15;6.47;;;22.40;57.00;;;;;;5033500;28;20038;-70
2022/01/28 09:13:23;;;;;;;20.88;5.35;;;22.30;55.70;;;;;;5033968;28;20095;-69
2022/01/28 09:15:49;;;;;;;30.50;5.65;;;22.20;55.10;;;;;;5033402;28;20029;-70
2022/01/28 09:18:17;;;;;;;24.02;5.90;;;22.10;55.70;;;;;;5031868;28;20052;-70
2022/01/28 09:20:43;;;;;;;20.40;5.45;;;22.10;54.80;;;;;;5022791;28;20057;-70
2022/01/28 09:23:09;;;;;;;20.17;5.85;;;22.00;53.10;;;;;;5013483;28;20673;-70
2022/01/28 09:25:34;;;;;;;18.77;5.40;;;22.00;53.40;;;;;;5030868;28;20056;-70
2022/01/28 09:28:01;;;;;;;20.60;5.35;;;21.90;52.80;;;;;;5031051;28;20079;-70
2022/01/28 09:30:27;;;;;;;16.27;5.03;;;21.90;52.80;;;;;;5030543;28;20026;-70
2022/01/28 09:32:53;;;;;;;22.40;4.95;;;21.90;53.40;;;;;;5030006;28;20041;-70
2022/01/28 09:35:19;;;;;;;16.88;4.88;;;22.00;52.80;;;;;;5030823;28;20116;-71
2022/01/28 09:37:45;;;;;;;59.75;38.00;;;22.00;53.50;;;;;;5031289;28;20113;-71
2022/01/28 09:40:12;;;;;;;66.18;39.10;;;21.90;49.00;;;;;;5029496;28;20537;-71
2022/01/28 09:42:41;;;;;;;39.75;23.70;;;21.60;44.30;;;;;;5029994;28;20572;-71
2022/01/28 09:45:09;;;;;;;30.50;16.65;;;21.40;43.50;;;;;;5029631;28;20034;-72
2022/01/28 09:47:38;;;;;;;26.02;12.95;;;21.30;42.90;;;;;;5029303;28;20033;-72
2022/01/28 09:50:06;;;;;;;23.63;10.60;;;21.10;42.60;;;;;;5028584;28;20544;-70
2022/01/28 09:52:32;;;;;;;25.27;10.85;;;21.10;41.20;;;;;;5026367;28;20448;-71
2022/01/28 09:54:58;;;;;;;27.95;11.50;;;21.20;42.40;;;;;;5027939;28;20049;-70
2022/01/28 09:57:24;;;;;;;25.88;11.38;;;21.40;43.10;;;;;;5030186;28;20071;-70
2022/01/28 09:59:50;;;;;;;26.55;11.52;;;21.50;43.10;;;;;;5030131;28;20068;-70
2022/01/28 10:02:15;;;;;;;30.65;11.45;;;21.60;44.10;;;;;;5030674;28;20026;-69
2022/01/28 10:04:42;;;;;;;25.95;11.77;;;21.70;44.60;;;;;;5031301;28;20573;-70
2022/01/28 10:07:15;;;;;;;25.88;10.60;;;21.80;44.90;;;;;;5032651;28;20033;-70
2022/01/28 10:09:55;;;;;;;30.85;11.30;;;21.90;45.30;;;;;;5032617;28;20029;-78
2022/01/28 10:12:30;;;;;;;35.80;18.80;;;21.90;46.00;;;;;;5032433;28;20040;-77
2022/01/28 10:15:02;;;;;;;38.78;15.88;;;21.70;45.40;;;;;;5033481;28;20038;-77
2022/01/28 10:17:55;;;;;;;24.60;9.55;;;21.50;42.50;;;;;;5031895;28;20044;-76
2022/01/28 10:20:23;;;;;;;27.00;8.63;;;21.30;40.70;;;;;;5032458;28;20064;-71
2022/01/28 10:22:53;;;;;;;28.20;8.95;;;21.10;38.90;;;;;;5032589;28;20033;-69
2022/01/28 10:25:35;;;;;;;25.52;8.05;;;21.10;41.00;;;;;;5032569;28;20061;-71
2022/01/28 10:28:07;;;;;;;34.67;9.60;;;21.20;41.30;;;;;;5031741;28;20036;-70
2022/01/28 10:30:40;;;;;;;22.05;8.07;;;21.40;44.40;;;;;;5032151;28;20094;-70
2022/01/28 10:33:18;;;;;;;28.75;8.77;;;21.50;42.60;;;;;;5031112;28;20033;-71
2022/01/28 10:35:58;;;;;;;25.20;7.95;;;21.50;42.20;;;;;;5031407;28;20124;-70
2022/01/28 10:38:32;;;;;;;21.38;8.05;;;21.70;42.40;;;;;;5032068;28;20037;-71
2022/01/28 10:41:25;;;;;;;21.77;7.72;;;21.70;42.50;;;;;;5013335;28;20033;-70
2022/01/28 10:43:54;;;;;;;30.08;8.35;;;21.80;42.40;;;;;;5029913;28;20100;-71
2022/01/28 10:46:24;;;;;;;22.67;8.10;;;21.80;42.60;;;;;;5029561;28;20025;-71
2022/01/28 10:48:59;;;;;;;23.20;8.60;;;21.90;43.10;;;;;;5030955;28;20022;-71
2022/01/28 10:51:47;;;;;;;23.98;7.65;;;21.90;43.50;;;;;;5030901;28;20390;-71
2022/01/28 10:54:16;;;;;;;19.23;8.02;;;21.90;43.80;;;;;;5032004;28;20064;-71
2022/01/28 10:56:57;;;;;;;21.23;7.80;;;21.90;44.10;;;;;;5032103;28;20021;-71
2022/01/28 10:59:28;;;;;;;21.65;7.82;;;21.90;44.30;;;;;;5031642;28;20039;-71
2022/01/28 11:01:54;;;;;;;23.75;8.38;;;22.00;44.60;;;;;;5031648;28;20031;-71
2022/01/28 11:04:21;;;;;;;23.58;8.05;;;22.00;44.80;;;;;;5031316;28;20393;-71
2022/01/28 11:06:50;;;;;;;21.48;7.97;;;22.00;45.00;;;;;;5030690;28;20028;-70
2022/01/28 11:09:18;;;;;;;18.42;7.40;;;22.00;45.20;;;;;;5030748;28;20060;-71
2022/01/28 11:11:44;;;;;;;20.83;8.18;;;22.00;45.30;;;;;;5030409;28;20044;-71
2022/01/28 11:14:10;;;;;;;22.10;7.97;;;22.10;45.60;;;;;;5030557;28;20029;-71
2022/01/28 11:16:36;;;;;;;21.45;8.48;;;22.10;45.70;;;;;;5031941;28;20456;-71
2022/01/28 11:19:04;;;;;;;21.05;8.20;;;22.10;45.90;;;;;;5031183;28;20056;-70
2022/01/28 11:21:52;;;;;;;24.65;8.73;;;22.10;46.10;;;;;;5031552;28;20026;-71
2022/01/28 11:24:35;;;;;;;24.60;8.02;;;22.20;46.30;;;;;;5031524;28;20504;-71
2022/01/28 11:27:10;;;;;;;22.38;7.93;;;22.20;46.40;;;;;;5030529;28;20032;-70
2022/01/28 11:29:36;;;;;;;20.60;7.25;;;22.20;46.50;;;;;;5030214;28;20057;-70
2022/01/28 11:32:17;;;;;;;24.05;8.20;;;22.30;46.70;;;;;;5030550;28;20060;-71
2022/01/28 11:34:57;;;;;;;20.25;7.97;;;22.20;46.90;;;;;;5030399;28;20032;-70
2022/01/28 11:37:31;;;;;;;20.02;8.80;;;22.20;47.10;;;;;;5031299;28;20120;-70
2022/01/28 11:40:07;;;;;;;18.00;7.55;;;22.20;47.30;;;;;;5030061;28;20056;-70
2022/01/28 11:42:34;;;;;;;20.60;7.45;;;22.20;47.40;;;;;;5031452;28;20108;-70
2022/01/28 11:45:03;;;;;;;17.55;7.78;;;22.20;47.50;;;;;;5031055;28;20026;-70
2022/01/28 11:47:36;;;;;;;;;;;22.20;47.80;;;;;;5014343;28;20029;-70
2022/01/28 11:50:10;;;;;;;21.98;9.15;;;22.20;47.80;;;;;;5030089;28;19963;-70
2022/01/28 11:52:41;;;;;;;22.15;8.80;;;22.20;48.00;;;;;;5030021;28;20430;-70
2022/01/28 11:55:25;;;;;;;21.02;8.80;;;22.20;48.20;;;;;;5030067;28;20040;-70
2022/01/28 11:57:51;;;;;;;23.50;8.70;;;22.20;48.20;;;;;;5031868;28;20245;-70
2022/01/28 12:00:31;;;;;;;19.48;8.10;;;22.20;48.30;;;;;;5029625;28;20076;-70
2022/01/28 12:02:57;;;;;;;19.85;8.10;;;22.20;48.90;;;;;;5030210;28;20371;-70
2022/01/28 12:05:43;;;;;;;23.98;9.38;;;22.20;48.40;;;;;;5031312;28;20060;-70
2022/01/28 12:08:19;;;;;;;19.55;8.82;;;22.20;48.50;;;;;;5011085;28;20116;-70
2022/01/28 12:10:49;;;;;;;20.88;8.25;;;22.20;48.60;;;;;;5011175;28;20608;-70
2022/01/28 12:13:18;;;;;;;19.98;8.02;;;22.20;48.60;;;;;;5010188;28;20461;-71
2022/01/28 12:16:03;;;;;;;20.20;7.43;;;22.20;48.70;;;;;;5013215;28;20573;-71
2022/01/28 12:18:55;;;;;;;20.20;7.90;;;22.20;48.80;;;;;;5014112;28;20041;-71
2022/01/28 12:21:24;;;;;;;17.90;8.35;;;22.20;49.00;;;;;;5026775;28;20102;-71
2022/01/28 12:23:52;;;;;;;21.02;8.38;;;22.20;49.10;;;;;;5033830;28;20032;-71
2022/01/28 12:26:19;;;;;;;21.58;8.65;;;22.20;49.20;;;;;;5034884;28;20025;-72
2022/01/28 12:28:50;;;;;;;19.77;8.13;;;22.20;49.20;;;;;;5034539;28;20128;-71
2022/01/28 12:31:29;;;;;;;19.95;7.65;;;22.20;49.30;;;;;;5034517;28;20056;-71
2022/01/28 12:33:56;;;;;;;19.10;8.63;;;22.20;49.40;;;;;;5033101;28;20394;-71
2022/01/28 12:36:29;;;;;;;22.08;8.55;;;22.20;49.40;;;;;;5017146;28;20037;-71
2022/01/28 12:41:25;;;;;;;19.00;7.95;;;22.20;49.60;;;;;;5034235;28;20079;-71
2022/01/28 12:43:52;;;;;;;19.05;8.35;;;22.20;49.60;;;;;;5034155;28;20047;-72
2022/01/28 12:46:19;;;;;;;20.27;8.63;;;22.20;49.70;;;;;;5034524;28;20026;-71
2022/01/28 12:48:47;;;;;;;18.42;7.65;;;22.20;49.80;;;;;;5034373;28;20037;-72
2022/01/28 12:51:12;;;;;;;17.85;7.43;;;22.20;49.80;;;;;;5034087;28;20056;-71
2022/01/28 12:53:47;;;;;;;23.73;8.55;;;22.20;49.90;;;;;;5034326;28;20107;-72
2022/01/28 12:56:16;;;;;;;19.13;7.60;;;22.20;50.00;;;;;;5034344;28;20037;-72
2022/01/28 12:58:46;;;;;;;19.40;7.43;;;22.20;50.00;;;;;;5034221;28;20034;-72
2022/01/28 13:01:13;;;;;;;;;;;22.20;50.10;;;;;;5034140;28;20126;-72
2022/01/28 13:03:51;;;;;;;16.92;7.45;;;22.10;50.00;;;;;;5033123;28;20348;-72
2022/01/28 13:06:26;;;;;;;19.73;7.70;;;22.20;50.00;;;;;;5034713;28;20029;-72
2022/01/28 13:08:52;;;;;;;17.33;7.53;;;22.10;50.20;;;;;;5034066;28;20026;-72
2022/01/28 13:11:18;;;;;;;17.70;7.45;;;22.10;50.10;;;;;;5033631;28;20036;-72
2022/01/28 13:13:57;;;;;;;18.52;7.18;;;22.10;50.20;;;;;;5033923;28;20029;-72
2022/01/28 13:16:34;;;;;;;19.15;7.50;;;22.20;50.30;;;;;;5032845;28;20406;-72
2022/01/28 13:19:02;;;;;;;17.25;6.97;;;22.20;50.30;;;;;;5032264;28;20028;-71
2022/01/28 13:21:28;;;;;;;16.08;6.40;;;22.20;50.30;;;;;;5032576;28;20033;-71
2022/01/28 13:24:07;;;;;;;17.67;7.38;;;22.20;50.40;;;;;;5033671;28;20029;-72
2022/01/28 13:26:34;;;;;;;15.73;7.32;;;22.20;50.40;;;;;;5033172;28;20474;-72
2022/01/28 13:29:07;;;;;;;17.20;7.03;;;22.20;50.50;;;;;;5030229;28;20095;-72
2022/01/28 13:31:33;;;;;;;14.95;6.85;;;22.10;50.40;;;;;;5031699;28;20040;-72
2022/01/28 13:33:59;;;;;;;16.50;7.13;;;22.20;50.50;;;;;;5032208;28;20033;-72
2022/01/28 13:36:25;;;;;;;18.33;7.30;;;22.10;51.10;;;;;;5032247;28;20024;-71
2022/01/28 13:38:52;;;;;;;17.85;7.53;;;22.20;50.50;;;;;;5032913;28;20541;-71
2022/01/28 13:41:25;;;;;;;15.07;6.85;;;22.20;50.60;;;;;;5032013;28;20071;-72
2022/01/28 13:43:54;;;;;;;17.08;6.95;;;22.20;50.50;;;;;;5033168;28;20490;-72
2022/01/28 13:46:19;;;;;;;16.30;7.15;;;22.20;50.50;;;;;;5033371;28;20036;-72
2022/01/28 13:48:47;;;;;;;16.58;7.10;;;22.20;50.40;;;;;;5033299;28;20033;-72
2022/01/28 13:51:17;;;;;;;17.23;7.22;;;22.20;50.40;;;;;;5031259;28;20449;-73
2022/01/28 13:56:33;;;;;;;14.65;6.47;;;22.20;50.50;;;;;;5032749;28;20056;-72
2022/01/28 13:59:00;;;;;;;16.08;6.95;;;22.20;50.50;;;;;;5031872;28;20071;-72
2022/01/28 14:01:28;;;;;;;13.32;6.05;;;22.20;50.60;;;;;;5029302;28;20049;-71
2022/01/28 14:03:55;;;;;;;14.88;6.75;;;22.20;50.60;;;;;;5030984;28;20052;-72